Time;durP1;ratioP1;P1;durP2;ratioP2;P2;SDS_P1;SDS_P2;PMS_P1;PMS_P2;Temp;Humidity;BMP_temperature;BMP_pressure;BME280_temperature;BME280_humidity;BME280_pressure;Samples;Min_cycle;Max_cycle;Signal;HPM_P1;HPM_P2
2022/11/11 00:02:11;;;;;;;0.65;0.40;;;;;;;22.65;100.00;100051.13;7394854;19;20018;-57
2022/11/11 00:04:56;;;;;;;0.22;0.22;;;;;;;22.70;100.00;100056.66;7390841;19;20002;-57
2022/11/11 00:07:41;;;;;;;0.68;0.20;;;;;;;22.76;100.00;100048.00;7390376;19;20007;-57
2022/11/11 00:10:26;;;;;;;3.22;0.63;;;;;;;22.95;100.00;100048.53;7389994;19;20010;-57
2022/11/11 00:13:11;;;;;;;0.10;0.10;;;;;;;22.80;100.00;100042.75;7390201;19;20018;-59
2022/11/11 00:15:56;;;;;;;1.95;0.30;;;;;;;22.65;100.00;100049.06;7389177;19;20011;-57
2022/11/11 00:25:07;;;;;;;2.17;0.80;;;;;;;22.81;100.00;100049.94;7389191;19;20084;-57
2022/11/11 00:27:52;;;;;;;0.90;0.20;;;;;;;22.98;100.00;100047.41;7390185;19;20021;-59
2022/11/11 00:30:37;;;;;;;0.77;0.75;;;;;;;23.18;100.00;100050.22;7390668;19;20014;-59
2022/11/11 00:33:21;;;;;;;3.53;0.85;;;;;;;23.16;100.00;100050.00;7389551;19;20025;-59
2022/11/11 00:36:06;;;;;;;0.30;0.30;;;;;;;22.92;100.00;100053.25;7390085;19;20444;-58
2022/11/11 00:38:54;;;;;;;0.20;0.00;;;;;;;23.06;100.00;100065.28;7389561;19;20010;-58
2022/11/11 00:41:39;;;;;;;0.10;0.10;;;;;;;23.28;100.00;100056.16;7393307;19;20022;-58
2022/11/11 00:44:23;;;;;;;0.63;0.22;;;;;;;23.07;100.00;100052.59;7391220;19;20090;-60
2022/11/11 00:53:24;;;;;;;1.02;0.25;;;;;;;23.03;100.00;100067.16;7389292;19;20026;-60
2022/11/11 00:56:09;;;;;;;0.47;0.20;;;;;;;22.54;100.00;100069.94;7388986;19;20030;-60
2022/11/11 00:58:53;;;;;;;0.30;0.30;;;;;;;22.81;100.00;100067.75;7392055;19;20082;-60
2022/11/11 01:01:38;;;;;;;1.13;0.30;;;;;;;23.03;100.00;100060.72;7392038;19;20125;-61
2022/11/11 01:04:22;;;;;;;0.47;0.30;;;;;;;22.77;100.00;100072.25;7389141;19;20010;-60
2022/11/11 01:07:07;;;;;;;0.30;0.10;;;;;;;22.45;100.00;100059.06;7388403;19;20022;-60
2022/11/11 01:09:51;;;;;;;2.20;0.30;;;;;;;22.58;100.00;100067.53;7389041;19;20019;-59
2022/11/11 01:12:36;;;;;;;0.93;0.40;;;;;;;22.51;100.00;100073.88;7392940;19;20023;-59
2022/11/11 01:15:21;;;;;;;0.63;0.20;;;;;;;22.37;100.00;100072.41;7388194;19;20014;-59
2022/11/11 01:18:06;;;;;;;1.15;0.68;;;;;;;22.21;100.00;100073.59;7388461;19;20053;-59
2022/11/11 01:20:57;;;;;;;0.63;0.55;;;;;;;22.11;100.00;100068.94;7389489;19;20026;-59
2022/11/11 01:23:44;;;;;;;1.02;0.10;;;;;;;21.92;100.00;100063.41;7388712;19;20010;-59
2022/11/11 01:26:29;;;;;;;11.88;0.30;;;;;;;21.81;100.00;100060.78;7389609;19;20011;-60
2022/11/11 01:29:14;;;;;;;6.75;0.95;;;;;;;21.80;100.00;100059.28;7390436;19;20046;-59
2022/11/11 01:31:58;;;;;;;1.20;0.10;;;;;;;21.77;100.00;100057.53;7392474;19;20010;-59
2022/11/11 01:34:43;;;;;;;0.43;0.17;;;;;;;21.73;100.00;100065.59;7387642;19;20035;-59
2022/11/11 01:37:27;;;;;;;0.57;0.38;;;;;;;21.95;100.00;100061.56;7389166;19;20014;-59
2022/11/11 01:40:12;;;;;;;0.38;0.15;;;;;;;21.93;100.00;100052.81;7389805;19;20021;-59
2022/11/11 01:43:03;;;;;;;2.97;0.30;;;;;;;21.79;100.00;100054.91;7388145;19;20493;-59
2022/11/11 01:45:57;;;;;;;0.20;0.20;;;;;;;21.94;100.00;100049.44;7392006;19;20018;-59
2022/11/11 01:51:53;;;;;;;1.10;0.20;;;;;;;21.69;100.00;100040.44;7390664;19;20018;-59
2022/11/11 01:54:44;;;;;;;1.10;0.10;;;;;;;21.79;100.00;100038.66;7388446;19;20015;-59
2022/11/11 01:57:29;;;;;;;0.10;0.00;;;;;;;21.85;100.00;100053.50;7386301;19;20341;-57
2022/11/11 02:00:16;;;;;;;0.10;0.10;;;;;;;21.98;100.00;100052.72;7387641;19;20530;-59
2022/11/11 02:03:08;;;;;;;0.25;0.25;;;;;;;21.96;100.00;100051.75;7387332;19;20018;-57
2022/11/11 02:05:55;;;;;;;0.10;0.10;;;;;;;22.08;100.00;100048.09;7386130;19;20015;-57
2022/11/11 02:08:40;;;;;;;0.28;0.20;;;;;;;22.11;100.00;100051.91;7386994;19;20467;-58
2022/11/11 02:14:35;;;;;;;0.55;0.17;;;;;;;21.94;100.00;100049.44;7393780;19;20014;-57
2022/11/11 02:17:20;;;;;;;1.55;0.32;;;;;;;21.83;100.00;100046.84;7393902;19;20074;-59
2022/11/11 02:20:08;;;;;;;0.30;0.10;;;;;;;21.65;100.00;100042.06;7393738;19;20100;-57
2022/11/11 02:23:11;;;;;;;3.30;0.30;;;;;;;21.57;100.00;100050.47;7394928;19;20018;-59
2022/11/11 02:25:59;;;;;;;0.45;0.17;;;;;;;21.90;100.00;100046.19;7394625;19;20019;-59
2022/11/11 02:28:45;;;;;;;0.00;0.00;;;;;;;21.91;100.00;100050.56;7396745;19;20018;-59
2022/11/11 02:31:31;;;;;;;6.03;1.00;;;;;;;21.94;100.00;100052.28;7396186;19;20459;-59
2022/11/11 02:34:16;;;;;;;2.40;0.40;;;;;;;21.85;100.00;100055.59;7393443;19;20014;-59
2022/11/11 02:37:03;;;;;;;0.63;0.47;;;;;;;22.18;100.00;100051.97;7393137;19;20074;-59
2022/11/11 02:39:51;;;;;;;5.40;0.35;;;;;;;22.73;100.00;100049.13;7394033;19;20019;-59
2022/11/11 02:42:36;;;;;;;0.10;0.10;;;;;;;22.73;100.00;100046.28;7398684;19;20015;-59
2022/11/11 02:45:20;;;;;;;1.65;0.55;;;;;;;23.13;100.00;100058.91;7397349;19;20114;-59
2022/11/11 02:48:05;;;;;;;0.38;0.38;;;;;;;23.40;100.00;100057.38;7392669;19;20343;-59
2022/11/11 02:50:50;;;;;;;0.08;0.05;;;;;;;23.12;100.00;100063.06;7393022;19;20070;-59
2022/11/11 02:53:35;;;;;;;0.00;0.00;;;;;;;22.81;100.00;100055.59;7393358;19;20025;-59
2022/11/11 02:57:06;;;;;;;0.88;0.30;;;;;;;22.90;100.00;100057.97;7390502;19;20014;-61
2022/11/11 02:59:25;;;;;;;0.22;0.20;;;;;;;22.84;100.00;100060.97;7397390;19;20022;-59
2022/11/11 03:02:10;;;;;;;0.20;0.20;;;;;;;23.18;100.00;100055.13;7397630;19;20006;-59
2022/11/11 03:04:56;;;;;;;0.35;0.13;;;;;;;23.41;100.00;100063.84;7392670;19;20019;-59
2022/11/11 03:07:41;;;;;;;0.77;0.50;;;;;;;23.47;100.00;100065.22;7393269;19;20038;-59
2022/11/11 03:10:25;;;;;;;0.10;0.00;;;;;;;23.55;100.00;100066.00;7393072;19;20506;-59
2022/11/11 03:13:10;;;;;;;1.45;0.50;;;;;;;23.80;100.00;100061.38;7391533;19;20013;-59
2022/11/11 03:15:55;;;;;;;0.03;0.00;;;;;;;23.36;100.00;100074.03;7391879;19;20014;-59
2022/11/11 03:18:39;;;;;;;0.20;0.20;;;;;;;23.62;100.00;100073.81;7392682;19;20026;-59
2022/11/11 03:21:24;;;;;;;0.10;0.00;;;;;;;23.62;100.00;100082.34;7395906;19;20018;-59
2022/11/11 03:24:09;;;;;;;0.30;0.10;;;;;;;23.78;100.00;100078.22;7390607;19;20047;-59
2022/11/11 03:26:54;;;;;;;0.30;0.10;;;;;;;23.99;100.00;100081.75;7392101;19;20011;-59
2022/11/11 03:29:38;;;;;;;0.95;0.00;;;;;;;23.77;100.00;100082.41;7396740;19;20015;-59
2022/11/11 03:32:22;;;;;;;0.00;0.00;;;;;;;24.09;100.00;100068.53;7397429;19;20475;-59
2022/11/11 03:35:07;;;;;;;0.10;0.10;;;;;;;23.72;100.00;100085.41;7394874;19;20038;-59
2022/11/11 03:40:56;;;;;;;0.00;0.00;;;;;;;24.42;100.00;100077.34;7394109;19;20010;-59
2022/11/11 03:43:41;;;;;;;0.30;0.28;;;;;;;24.31;100.00;100087.00;7391345;19;20451;-59
2022/11/11 03:46:26;;;;;;;1.77;0.30;;;;;;;24.30;100.00;100088.31;7390297;19;20014;-63
2022/11/11 03:49:10;;;;;;;1.65;0.20;;;;;;;24.42;100.00;100086.63;7391331;19;20337;-59
2022/11/11 03:51:55;;;;;;;0.35;0.35;;;;;;;24.50;100.00;100075.25;7395333;19;20078;-59
2022/11/11 03:54:39;;;;;;;0.05;0.00;;;;;;;24.84;99.66;100069.97;7389557;19;20499;-59
2022/11/11 03:57:30;;;;;;;0.25;0.10;;;;;;;24.62;99.20;100076.41;7390776;19;20006;-59
2022/11/11 04:00:24;;;;;;;0.10;0.10;;;;;;;24.64;98.99;100065.97;7392051;19;20011;-58
2022/11/11 04:12:27;;;;;;;3.03;0.22;;;;;;;24.25;99.85;100071.41;7394897;19;20526;-60
2022/11/11 04:18:15;;;;;;;0.10;0.10;;;;;;;24.35;100.00;100069.53;7390110;19;20011;-59
2022/11/11 04:25:47;;;;;;;1.15;0.20;;;;;;;24.13;100.00;100085.22;7389869;19;20014;-59
2022/11/11 04:27:14;;;;;;;0.22;0.22;;;;;;;24.07;100.00;100085.41;7390186;19;20006;-59
2022/11/11 04:29:58;;;;;;;0.77;0.30;;;;;;;23.99;100.00;100083.84;7394871;19;20084;-59
2022/11/11 04:32:46;;;;;;;0.65;0.30;;;;;;;24.14;100.00;100097.38;7394546;19;20014;-60
2022/11/11 04:35:30;;;;;;;0.15;0.10;;;;;;;24.16;99.65;100089.03;7390119;19;20011;-59
2022/11/11 04:41:18;;;;;;;0.13;0.13;;;;;;;23.93;99.91;100101.06;7388687;19;20007;-59
2022/11/11 04:47:06;;;;;;;0.15;0.15;;;;;;;23.44;100.00;100111.78;7389156;19;20007;-59
2022/11/11 04:49:51;;;;;;;0.10;0.03;;;;;;;23.83;100.00;100099.31;7390502;19;20042;-59
2022/11/11 04:52:36;;;;;;;0.20;0.20;;;;;;;23.79;100.00;100102.53;7394878;19;20019;-59
2022/11/11 04:58:27;;;;;;;0.00;0.00;;;;;;;23.66;100.00;100105.50;7394626;19;20413;-59
2022/11/11 05:03:14;;;;;;;0.10;0.10;;;;;;;23.60;100.00;100102.06;7394382;19;20010;-59
2022/11/11 05:04:16;;;;;;;0.20;0.00;;;;;;;23.64;100.00;100102.44;7393596;19;20011;-59
2022/11/11 05:10:04;;;;;;;0.80;0.28;;;;;;;23.27;100.00;100100.09;7393992;19;20034;-59
2022/11/11 05:12:49;;;;;;;0.43;0.10;;;;;;;23.48;100.00;100106.50;7393651;19;20007;-59
2022/11/11 05:21:41;;;;;;;0.00;0.00;;;;;;;24.04;99.64;100105.66;7392839;19;20015;-56
2022/11/11 05:27:29;;;;;;;0.30;0.15;;;;;;;24.20;98.37;100112.19;7387168;19;20019;-56
2022/11/11 05:30:15;;;;;;;1.60;0.28;;;;;;;23.54;100.00;100109.97;7387755;19;20014;-56
2022/11/11 05:32:59;;;;;;;0.85;0.20;;;;;;;23.69;99.94;100115.72;7387510;19;20010;-56
2022/11/11 05:35:44;;;;;;;0.30;0.10;;;;;;;23.42;100.00;100108.00;7385194;19;20015;-56
2022/11/11 05:38:29;;;;;;;0.00;0.00;;;;;;;23.73;99.97;100104.78;7387408;19;20010;-56
2022/11/11 05:41:13;;;;;;;0.22;0.10;;;;;;;23.72;99.83;100111.78;7389683;19;20682;-56
2022/11/11 05:43:57;;;;;;;0.20;0.00;;;;;;;23.34;100.00;100113.63;7388836;19;20455;-56
2022/11/11 05:46:42;;;;;;;0.00;0.00;;;;;;;23.08;100.00;100113.78;7387267;19;20015;-56
2022/11/11 05:49:27;;;;;;;0.00;0.00;;;;;;;22.93;100.00;100119.34;7394297;19;20366;-56
2022/11/11 05:52:15;;;;;;;0.20;0.10;;;;;;;22.88;100.00;100109.66;7398890;19;20014;-56
2022/11/11 05:55:00;;;;;;;0.32;0.20;;;;;;;22.73;100.00;100120.09;7394495;19;20476;-56
2022/11/11 05:57:44;;;;;;;0.10;0.10;;;;;;;22.67;100.00;100114.56;7393165;19;20015;-56
2022/11/11 06:00:29;;;;;;;0.00;0.00;;;;;;;22.69;100.00;100117.63;7395910;19;20018;-56
2022/11/11 06:03:14;;;;;;;0.82;0.40;;;;;;;22.34;100.00;100113.25;7394207;19;20019;-56
2022/11/11 06:05:59;;;;;;;0.20;0.17;;;;;;;22.25;100.00;100116.56;7394558;19;20430;-56
2022/11/11 06:08:43;;;;;;;5.32;0.40;;;;;;;21.95;100.00;100112.59;7395336;19;20014;-56
2022/11/11 06:11:28;;;;;;;0.45;0.10;;;;;;;22.24;100.00;100112.19;7396137;19;20018;-56
2022/11/11 06:14:13;;;;;;;0.40;0.30;;;;;;;22.26;100.00;100115.22;7394663;19;20023;-56
2022/11/11 06:16:58;;;;;;;0.10;0.00;;;;;;;22.09;100.00;100117.69;7393010;19;20086;-56
2022/11/11 06:19:42;;;;;;;0.25;0.20;;;;;;;22.36;100.00;100129.72;7394233;19;20500;-56
2022/11/11 06:28:36;;;;;;;0.10;0.10;;;;;;;21.94;100.00;100128.84;7396879;19;20014;-56
2022/11/11 06:31:24;;;;;;;0.10;0.00;;;;;;;21.92;100.00;100134.31;7396901;19;20022;-56
2022/11/11 06:34:09;;;;;;;2.65;0.10;;;;;;;21.64;100.00;100139.75;7394438;19;20050;-57
2022/11/11 06:36:54;;;;;;;1.58;0.30;;;;;;;22.08;100.00;100138.88;7393104;19;20487;-56
2022/11/11 06:39:38;;;;;;;0.47;0.43;;;;;;;22.59;100.00;100159.91;7394022;19;20747;-56
2022/11/11 06:42:23;;;;;;;0.20;0.10;;;;;;;22.81;100.00;100157.84;7398755;19;20015;-56
2022/11/11 06:45:08;;;;;;;0.20;0.00;;;;;;;22.63;100.00;100158.81;7396751;19;20332;-56
2022/11/11 06:47:53;;;;;;;0.43;0.03;;;;;;;22.24;100.00;100159.69;7393428;19;20019;-57
2022/11/11 06:50:38;;;;;;;0.80;0.10;;;;;;;22.56;100.00;100158.16;7393679;19;20042;-56
2022/11/11 06:53:22;;;;;;;2.20;0.47;;;;;;;22.67;100.00;100156.41;7393588;19;20014;-56
2022/11/11 06:56:07;;;;;;;1.52;0.43;;;;;;;22.42;100.00;100156.66;7392938;19;20010;-56
2022/11/11 06:58:52;;;;;;;0.35;0.25;;;;;;;22.96;100.00;100155.16;7394930;19;20011;-56
2022/11/11 07:01:37;;;;;;;4.68;1.70;;;;;;;23.01;100.00;100159.94;7395344;19;20471;-57
2022/11/11 07:04:21;;;;;;;4.20;0.60;;;;;;;22.81;100.00;100163.53;7391824;19;20400;-56
2022/11/11 07:07:06;;;;;;;1.80;0.35;;;;;;;22.71;100.00;100162.50;7393308;19;20007;-56
2022/11/11 07:09:51;;;;;;;3.08;0.98;;;;;;;22.60;100.00;100161.44;7396252;19;20010;-57
2022/11/11 07:12:40;;;;;;;1.00;0.30;;;;;;;22.20;100.00;100168.50;7397654;19;20062;-57
2022/11/11 07:15:25;;;;;;;6.85;1.05;;;;;;;22.11;100.00;100166.13;7397115;19;20010;-56
2022/11/11 07:18:11;;;;;;;0.52;0.35;;;;;;;22.46;100.00;100174.13;7395472;19;20751;-58
2022/11/11 07:20:56;;;;;;;3.85;1.67;;;;;;;22.68;100.00;100178.56;7396392;19;20014;-56
2022/11/11 07:23:40;;;;;;;7.30;0.65;;;;;;;22.67;100.00;100177.03;7392413;19;20018;-56
2022/11/11 07:26:25;;;;;;;3.25;0.30;;;;;;;22.89;100.00;100176.50;7392318;19;20014;-62
2022/11/11 07:29:11;;;;;;;3.88;0.77;;;;;;;22.86;100.00;100188.19;7395430;19;20031;-58
2022/11/11 07:31:55;;;;;;;2.47;0.20;;;;;;;23.13;100.00;100183.94;7395589;19;20015;-56
2022/11/11 07:34:40;;;;;;;0.10;0.10;;;;;;;23.08;100.00;100187.66;7392007;19;20014;-56
2022/11/11 07:37:25;;;;;;;5.97;0.73;;;;;;;22.95;100.00;100190.56;7390501;19;20399;-57
2022/11/11 07:40:12;;;;;;;0.00;0.00;;;;;;;23.22;100.00;100197.63;7391662;19;20069;-56
2022/11/11 07:42:57;;;;;;;4.38;0.40;;;;;;;23.27;100.00;100211.72;7391262;19;20018;-56
2022/11/11 07:45:42;;;;;;;0.73;0.10;;;;;;;23.68;100.00;100213.75;7395523;19;20010;-57
2022/11/11 07:48:27;;;;;;;1.80;0.38;;;;;;;23.69;100.00;100203.88;7391118;19;20022;-56
2022/11/11 07:51:11;;;;;;;0.15;0.13;;;;;;;23.74;99.52;100207.91;7393758;19;20010;-57
2022/11/11 07:53:56;;;;;;;0.20;0.13;;;;;;;23.06;100.00;100224.41;7391891;19;20811;-56
2022/11/11 07:56:40;;;;;;;2.33;0.30;;;;;;;23.04;100.00;100218.50;7390557;19;20006;-56
2022/11/11 07:59:25;;;;;;;0.10;0.10;;;;;;;23.30;100.00;100216.25;7395317;19;20081;-56
2022/11/11 08:02:10;;;;;;;1.00;0.30;;;;;;;23.30;100.00;100221.94;7396108;19;20022;-56
2022/11/11 08:04:55;;;;;;;0.80;0.40;;;;;;;23.10;100.00;100221.97;7389717;19;20019;-56
2022/11/11 08:07:41;;;;;;;2.83;0.63;;;;;;;23.37;100.00;100229.03;7390853;19;20018;-56
2022/11/11 08:10:26;;;;;;;1.13;0.10;;;;;;;23.43;100.00;100235.38;7389685;19;20010;-56
2022/11/11 08:16:14;;;;;;;0.10;0.00;;;;;;;23.51;100.00;100241.88;7390560;19;20018;-56
2022/11/11 08:18:59;;;;;;;0.28;0.28;;;;;;;23.22;100.00;100238.19;7390600;19;20010;-56
2022/11/11 08:21:43;;;;;;;0.13;0.13;;;;;;;23.49;100.00;100247.38;7393925;19;20024;-57
2022/11/11 08:24:28;;;;;;;0.15;0.00;;;;;;;23.67;100.00;100242.75;7391224;19;20010;-56
2022/11/11 08:27:13;;;;;;;5.15;0.45;;;;;;;23.39;100.00;100243.47;7390603;19;20467;-56
2022/11/11 08:29:57;;;;;;;0.05;0.00;;;;;;;23.60;100.00;100249.91;7394266;19;20460;-56
2022/11/11 08:32:42;;;;;;;0.28;0.15;;;;;;;23.61;100.00;100257.13;7396116;19;20018;-56
2022/11/11 08:35:28;;;;;;;2.97;0.65;;;;;;;23.66;100.00;100264.75;7390385;19;20015;-56
2022/11/11 08:38:13;;;;;;;0.15;0.10;;;;;;;23.58;100.00;100269.63;7388328;19;20022;-56
2022/11/11 08:41:03;;;;;;;3.80;0.57;;;;;;;23.62;100.00;100269.25;7391192;19;20014;-57
2022/11/11 08:43:52;;;;;;;0.15;0.15;;;;;;;23.48;100.00;100270.63;7390438;19;20022;-56
2022/11/11 08:46:37;;;;;;;0.00;0.00;;;;;;;23.70;100.00;100281.44;7389073;19;20010;-57
2022/11/11 08:49:22;;;;;;;0.17;0.05;;;;;;;23.65;100.00;100268.91;7389958;19;20363;-56
2022/11/11 08:52:07;;;;;;;0.20;0.15;;;;;;;23.46;100.00;100274.06;7393478;19;20018;-57
2022/11/11 08:54:52;;;;;;;0.85;0.55;;;;;;;23.79;100.00;100278.88;7389474;19;20093;-57
2022/11/11 08:57:37;;;;;;;0.40;0.00;;;;;;;23.44;100.00;100287.28;7387783;19;20006;-57
2022/11/11 09:00:22;;;;;;;3.85;0.60;;;;;;;23.48;100.00;100290.53;7389954;19;20018;-57
2022/11/11 09:03:11;;;;;;;1.45;0.20;;;;;;;23.46;100.00;100293.94;7389539;19;20058;-57
2022/11/11 09:05:56;;;;;;;2.40;0.40;;;;;;;23.40;100.00;100287.66;7389542;19;20019;-56
2022/11/11 09:08:42;;;;;;;1.27;0.45;;;;;;;23.47;100.00;100292.66;7389747;19;20035;-57
2022/11/11 09:11:34;;;;;;;4.85;0.77;;;;;;;23.79;100.00;100295.94;7392908;19;20028;-57
2022/11/11 09:14:19;;;;;;;1.23;0.47;;;;;;;23.89;100.00;100302.66;7389379;19;20497;-56
2022/11/11 09:17:05;;;;;;;1.27;0.40;;;;;;;23.87;100.00;100302.44;7389372;19;20074;-57
2022/11/11 09:19:49;;;;;;;0.43;0.38;;;;;;;23.87;100.00;100296.75;7389921;19;20471;-57
2022/11/11 09:22:41;;;;;;;2.17;0.50;;;;;;;23.81;100.00;100299.00;7396266;19;20011;-57
2022/11/11 09:25:26;;;;;;;6.22;0.52;;;;;;;23.86;100.00;100294.47;7397344;19;20014;-57
2022/11/11 09:28:10;;;;;;;0.68;0.47;;;;;;;23.90;100.00;100303.44;7397418;19;20014;-57
2022/11/11 09:30:55;;;;;;;0.15;0.10;;;;;;;23.99;100.00;100300.09;7398398;19;20006;-57
2022/11/11 09:33:39;;;;;;;0.45;0.17;;;;;;;24.00;100.00;100299.50;7396123;19;20018;-57
2022/11/11 09:36:24;;;;;;;3.70;0.30;;;;;;;24.03;100.00;100301.25;7395473;19;20356;-57
2022/11/11 09:39:08;;;;;;;1.00;0.38;;;;;;;24.29;99.78;100296.69;7396132;19;20014;-57
2022/11/11 09:42:01;;;;;;;0.55;0.00;;;;;;;24.19;100.00;100309.94;7398367;19;20014;-57
2022/11/11 09:45:05;;;;;;;0.10;0.10;;;;;;;24.31;100.00;100311.13;7397851;19;20011;-57
2022/11/11 09:48:07;;;;;;;1.33;0.10;;;;;;;24.18;99.66;100312.00;7396766;19;20473;-58
2022/11/11 09:50:58;;;;;;;0.10;0.10;;;;;;;24.31;100.00;100311.13;7395027;19;20454;-57
2022/11/11 09:53:50;;;;;;;0.10;0.10;;;;;;;24.51;99.82;100316.75;7395864;19;20018;-57
2022/11/11 09:56:38;;;;;;;0.52;0.43;;;;;;;24.36;99.78;100324.44;7395435;19;20447;-57
2022/11/11 09:59:28;;;;;;;1.75;0.20;;;;;;;24.27;99.68;100324.97;7399719;19;20014;-56
2022/11/11 10:02:33;;;;;;;0.10;0.00;;;;;;;24.32;99.76;100324.06;7399964;19;20018;-57
2022/11/11 10:05:28;;;;;;;1.10;0.70;;;;;;;24.22;100.00;100334.41;7394993;19;20018;-55
2022/11/11 10:08:28;;;;;;;0.68;0.30;;;;;;;24.26;100.00;100323.41;7393907;19;20006;-55
2022/11/11 10:11:24;;;;;;;0.40;0.20;;;;;;;24.54;99.80;100331.94;7396829;19;20002;-55
2022/11/11 10:14:09;;;;;;;0.40;0.10;;;;;;;24.66;98.61;100330.31;7394360;19;20006;-55
2022/11/11 10:17:02;;;;;;;0.30;0.22;;;;;;;24.53;99.04;100333.28;7394333;19;20041;-55
2022/11/11 10:19:54;;;;;;;3.70;0.10;;;;;;;24.51;98.91;100327.38;7395405;19;20070;-55
2022/11/11 10:22:42;;;;;;;0.65;0.20;;;;;;;24.45;99.12;100341.75;7399452;19;20022;-55
2022/11/11 10:25:27;;;;;;;0.85;0.15;;;;;;;24.50;99.07;100342.94;7394060;19;20523;-55
2022/11/11 10:28:16;;;;;;;0.20;0.20;;;;;;;24.45;99.38;100332.47;7395887;19;20015;-55
2022/11/11 10:31:03;;;;;;;0.15;0.10;;;;;;;24.61;98.60;100339.75;7396163;19;20003;-55
2022/11/11 10:34:08;;;;;;;0.00;0.00;;;;;;;24.87;98.13;100338.78;7392966;19;20018;-55
2022/11/11 10:36:54;;;;;;;0.10;0.10;;;;;;;24.60;97.91;100338.25;7391451;19;20015;-55
2022/11/11 10:39:45;;;;;;;2.90;0.20;;;;;;;24.01;100.00;100349.44;7394239;19;20022;-55
2022/11/11 10:42:30;;;;;;;1.40;0.43;;;;;;;23.89;100.00;100345.34;7398620;19;20010;-55
2022/11/11 10:45:26;;;;;;;0.35;0.15;;;;;;;23.55;100.00;100350.34;7395767;19;20618;-55
2022/11/11 10:48:16;;;;;;;1.00;0.17;;;;;;;23.63;100.00;100356.84;7394211;19;20014;-55
2022/11/11 10:51:02;;;;;;;0.13;0.13;;;;;;;23.75;100.00;100360.97;7395716;19;20356;-55
2022/11/11 10:53:56;;;;;;;0.20;0.00;;;;;;;23.99;100.00;100357.75;7393659;19;20387;-55
2022/11/11 10:56:59;;;;;;;0.65;0.10;;;;;;;23.90;100.00;100358.25;7392879;19;20021;-55
2022/11/11 11:00:01;;;;;;;0.20;0.10;;;;;;;24.06;100.00;100359.91;7398383;19;20074;-55
2022/11/11 11:02:58;;;;;;;3.80;0.43;;;;;;;24.07;100.00;100352.91;7398688;19;20039;-55
2022/11/11 11:06:05;;;;;;;7.93;0.93;;;;;;;24.21;100.00;100364.97;7393249;19;20018;-55
2022/11/11 11:08:58;;;;;;;0.32;0.20;;;;;;;24.14;100.00;100362.84;7394032;19;20018;-55
2022/11/11 11:11:54;;;;;;;2.08;0.10;;;;;;;24.25;100.00;100364.63;7395431;19;20010;-55
2022/11/11 11:14:43;;;;;;;3.83;0.40;;;;;;;24.55;98.85;100362.72;7393291;19;20027;-55
2022/11/11 11:17:41;;;;;;;0.20;0.05;;;;;;;24.56;98.63;100361.38;7392256;19;20026;-55
2022/11/11 11:20:26;;;;;;;0.65;0.15;;;;;;;24.46;98.38;100365.31;7394148;19;20455;-55
2022/11/11 11:23:10;;;;;;;1.55;0.20;;;;;;;23.98;100.00;100359.06;7392512;19;20014;-55
2022/11/11 11:25:55;;;;;;;1.10;0.30;;;;;;;24.00;100.00;100356.44;7393847;19;20014;-55
2022/11/11 11:28:56;;;;;;;4.20;0.30;;;;;;;23.61;100.00;100365.19;7395465;19;20015;-55
2022/11/11 11:31:41;;;;;;;1.05;0.32;;;;;;;24.06;100.00;100365.59;7396277;19;20010;-55
2022/11/11 11:34:43;;;;;;;1.25;0.38;;;;;;;24.28;99.65;100366.34;7391213;19;20483;-55
2022/11/11 11:37:28;;;;;;;2.17;0.30;;;;;;;23.96;100.00;100367.41;7391516;19;20022;-55
2022/11/11 11:40:13;;;;;;;0.55;0.30;;;;;;;23.90;100.00;100366.00;7392431;19;20324;-55
2022/11/11 11:42:58;;;;;;;0.10;0.10;;;;;;;24.32;100.00;100353.25;7392512;19;20480;-55
2022/11/11 11:45:55;;;;;;;0.77;0.17;;;;;;;24.26;100.00;100360.44;7393231;19;20010;-55
2022/11/11 11:48:46;;;;;;;0.20;0.20;;;;;;;24.22;100.00;100360.03;7391808;19;20714;-55
2022/11/11 11:51:43;;;;;;;2.97;0.45;;;;;;;24.02;100.00;100364.41;7395063;19;20010;-55
2022/11/11 11:54:39;;;;;;;0.93;0.10;;;;;;;23.94;100.00;100357.88;7393129;19;20043;-55
2022/11/11 11:57:30;;;;;;;2.25;0.25;;;;;;;24.18;100.00;100359.63;7390744;19;20731;-55
2022/11/11 12:00:27;;;;;;;11.32;0.55;;;;;;;24.46;100.00;100356.78;7392053;19;20015;-55
2022/11/11 12:03:24;;;;;;;0.05;0.00;;;;;;;24.59;99.84;100353.81;7391814;19;20395;-55
2022/11/11 12:06:20;;;;;;;0.28;0.10;;;;;;;24.24;100.00;100357.38;7392442;19;20022;-55
2022/11/11 12:10:00;;;;;;;3.35;0.10;;;;;;;23.50;100.00;100351.22;7391713;19;20011;-55
2022/11/11 12:13:01;;;;;;;1.30;0.00;;;;;;;23.92;100.00;100347.06;7391783;19;20364;-55
2022/11/11 12:16:28;;;;;;;2.80;0.10;;;;;;;23.88;100.00;100354.44;7390201;19;20011;-55
2022/11/11 12:19:12;;;;;;;0.65;0.10;;;;;;;23.79;100.00;100352.06;7391361;19;20471;-55
2022/11/11 12:22:25;;;;;;;2.80;0.38;;;;;;;23.76;100.00;100365.31;7391801;19;20014;-55
2022/11/11 12:25:27;;;;;;;4.40;0.35;;;;;;;23.78;100.00;100357.00;7391234;19;20020;-55
2022/11/11 12:28:34;;;;;;;8.65;0.40;;;;;;;24.20;100.00;100371.22;7391236;19;20015;-55
2022/11/11 12:31:32;;;;;;;0.50;0.10;;;;;;;24.24;100.00;100380.16;7393452;19;20086;-55
2022/11/11 12:34:43;;;;;;;0.20;0.00;;;;;;;24.02;100.00;100372.94;7389918;19;20360;-55
2022/11/11 12:37:46;;;;;;;1.30;0.20;;;;;;;23.93;100.00;100374.19;7390216;19;20407;-55
2022/11/11 12:40:56;;;;;;;3.85;0.50;;;;;;;23.92;100.00;100367.00;7391284;19;20019;-55
2022/11/11 12:43:55;;;;;;;0.10;0.08;;;;;;;24.08;100.00;100368.66;7390337;19;20038;-55
2022/11/11 12:46:51;;;;;;;0.30;0.03;;;;;;;23.87;100.00;100365.03;7389708;19;20014;-55
2022/11/11 12:49:52;;;;;;;0.75;0.38;;;;;;;24.35;100.00;100368.47;7390264;19;20014;-55
2022/11/11 12:53:09;;;;;;;0.13;0.03;;;;;;;24.34;100.00;100366.97;7394490;19;20018;-55
2022/11/11 12:56:05;;;;;;;0.85;0.32;;;;;;;24.77;100.00;100370.66;7389845;19;20109;-55
2022/11/11 12:59:01;;;;;;;0.10;0.10;;;;;;;24.75;100.00;100364.00;7392667;19;20021;-55
2022/11/11 13:02:20;;;;;;;1.65;0.38;;;;;;;24.75;100.00;100361.16;7393174;19;20006;-56
2022/11/11 13:05:37;;;;;;;0.43;0.20;;;;;;;24.97;100.00;100357.63;7388284;19;20451;-55
2022/11/11 13:08:37;;;;;;;0.10;0.10;;;;;;;25.02;100.00;100361.63;7388715;19;20365;-55
2022/11/11 13:11:43;;;;;;;0.57;0.10;;;;;;;25.69;97.89;100366.00;7390778;19;20392;-55
2022/11/11 13:15:05;;;;;;;2.13;0.20;;;;;;;25.24;99.06;100375.97;7388465;19;20018;-55
2022/11/11 13:17:51;;;;;;;0.13;0.00;;;;;;;25.49;97.93;100371.31;7387707;19;20018;-55
2022/11/11 13:20:45;;;;;;;0.85;0.00;;;;;;;25.38;97.60;100362.34;7388776;19;20011;-55
2022/11/11 13:23:29;;;;;;;0.20;0.17;;;;;;;25.17;98.38;100361.69;7388331;19;20440;-55
2022/11/11 13:26:29;;;;;;;4.63;0.40;;;;;;;25.18;98.07;100375.41;7389097;19;20010;-55
2022/11/11 13:29:32;;;;;;;0.73;0.10;;;;;;;25.21;98.31;100371.41;7391903;19;20007;-55
2022/11/11 13:32:25;;;;;;;8.48;0.43;;;;;;;25.63;96.01;100368.28;7392943;19;20011;-55
2022/11/11 13:35:24;;;;;;;0.10;0.00;;;;;;;25.69;94.61;100369.63;7388511;19;20011;-55
2022/11/11 13:38:33;;;;;;;0.63;0.25;;;;;;;25.50;94.14;100369.22;7387526;19;20014;-55
2022/11/11 13:41:32;;;;;;;0.95;0.30;;;;;;;25.27;95.26;100372.00;7391121;19;20010;-55
2022/11/11 13:44:28;;;;;;;0.10;0.08;;;;;;;25.29;94.31;100363.66;7389901;19;20014;-55
2022/11/11 13:47:26;;;;;;;0.00;0.00;;;;;;;25.45;93.78;100368.06;7387435;19;20015;-55
2022/11/11 13:50:29;;;;;;;0.55;0.10;;;;;;;25.43;92.38;100362.16;7389172;19;20015;-54
2022/11/11 13:53:35;;;;;;;0.77;0.10;;;;;;;25.21;93.15;100368.53;7387341;19;20039;-54
2022/11/11 13:56:42;;;;;;;3.40;0.68;;;;;;;25.24;93.49;100366.66;7388418;19;20010;-54
2022/11/11 13:59:30;;;;;;;0.60;0.10;;;;;;;25.39;93.11;100367.47;7391694;19;20641;-54
2022/11/11 14:02:18;;;;;;;7.10;0.35;;;;;;;25.44;92.38;100372.28;7392800;19;20014;-54
2022/11/11 14:05:07;;;;;;;4.55;0.60;;;;;;;24.81;94.15;100376.75;7387673;19;20018;-54
2022/11/11 14:07:55;;;;;;;0.43;0.00;;;;;;;25.45;92.10;100376.63;7388240;19;20070;-55
2022/11/11 14:10:39;;;;;;;0.65;0.20;;;;;;;25.42;91.12;100383.47;7396967;19;20018;-54